Time;durP1;ratioP1;P1;durP2;ratioP2;P2;SDS_P1;SDS_P2;PMS_P1;PMS_P2;Temp;Humidity;BMP_temperature;BMP_pressure;BME280_temperature;BME280_humidity;BME280_pressure;Samples;Min_cycle;Max_cycle;Signal;HPM_P1;HPM_P2
2023/03/30 00:02:22;;;;;;;13.00;9.80;;;11.00;99.90;;;;;;4861332;29;20708;-72
2023/03/30 00:04:49;;;;;;;14.33;9.63;;;11.00;99.90;;;;;;4860476;29;20284;-72
2023/03/30 00:07:15;;;;;;;15.13;9.83;;;11.00;99.90;;;;;;4877857;29;20304;-71
2023/03/30 00:09:42;;;;;;;16.93;9.37;;;11.00;99.90;;;;;;4878441;29;20301;-71
2023/03/30 00:12:19;;;;;;;12.30;8.73;;;11.00;99.90;;;;;;4859897;29;20045;-71
2023/03/30 00:14:45;;;;;;;19.07;9.70;;;11.00;99.90;;;;;;4861291;29;20288;-71
2023/03/30 00:17:11;;;;;;;15.07;9.23;;;11.00;99.90;;;;;;4855652;29;20921;-71
2023/03/30 00:19:36;;;;;;;13.03;9.10;;;11.00;99.90;;;;;;4875670;29;20090;-71
2023/03/30 00:22:08;;;;;;;18.37;9.83;;;11.00;99.90;;;;;;4876100;29;20932;-71
2023/03/30 00:24:34;;;;;;;14.30;9.27;;;11.00;99.90;;;;;;4876606;29;20118;-72
2023/03/30 00:27:00;;;;;;;11.10;8.33;;;11.00;99.90;;;;;;4874536;29;20313;-71
2023/03/30 00:29:26;;;;;;;13.93;8.13;;;11.00;99.90;;;;;;4875972;29;20705;-71
2023/03/30 00:31:52;;;;;;;16.13;8.37;;;11.00;99.90;;;;;;4860442;29;20076;-71
2023/03/30 00:34:18;;;;;;;15.33;9.00;;;11.00;99.90;;;;;;4861080;29;21033;-71
2023/03/30 00:36:45;;;;;;;14.90;8.70;;;11.00;99.90;;;;;;4859775;29;20139;-71
2023/03/30 00:39:11;;;;;;;13.97;8.23;;;11.00;99.90;;;;;;4875782;29;20297;-71
2023/03/30 00:41:37;;;;;;;14.23;8.70;;;11.00;99.90;;;;;;4874940;29;20413;-71
2023/03/30 00:44:07;;;;;;;13.70;8.70;;;11.00;99.90;;;;;;4860943;29;20307;-71
2023/03/30 00:46:33;;;;;;;13.13;8.30;;;11.00;99.90;;;;;;4852362;29;20309;-71
2023/03/30 00:49:07;;;;;;;14.07;8.50;;;10.90;99.90;;;;;;4874489;29;20368;-71
2023/03/30 00:51:37;;;;;;;15.13;7.80;;;11.00;99.90;;;;;;4873389;29;20284;-71
2023/03/30 00:54:07;;;;;;;12.43;7.33;;;11.00;99.90;;;;;;4860529;29;21011;-71
2023/03/30 00:56:33;;;;;;;14.43;6.93;;;11.00;99.90;;;;;;4859285;29;20284;-71
2023/03/30 00:59:00;;;;;;;11.40;6.70;;;11.00;99.90;;;;;;4862061;29;20626;-71
2023/03/30 01:01:27;;;;;;;11.40;6.10;;;11.10;99.90;;;;;;4861991;29;20100;-71
2023/03/30 01:03:59;;;;;;;9.73;5.87;;;11.20;99.90;;;;;;4859177;29;20289;-71
2023/03/30 01:06:28;;;;;;;11.00;5.80;;;11.20;99.90;;;;;;4874952;29;20305;-71
2023/03/30 01:08:56;;;;;;;12.20;6.53;;;11.20;99.90;;;;;;4875927;29;20757;-71
2023/03/30 01:11:23;;;;;;;10.50;5.87;;;11.20;99.90;;;;;;4874278;29;21025;-71
2023/03/30 01:14:02;;;;;;;10.00;5.63;;;11.20;99.90;;;;;;4860609;29;20291;-71
2023/03/30 01:16:49;;;;;;;12.50;6.33;;;11.30;99.90;;;;;;4872103;29;20855;-71
2023/03/30 01:19:57;;;;;;;13.27;5.80;;;11.30;99.90;;;;;;4858504;29;20300;-72
2023/03/30 01:22:44;;;;;;;13.20;5.90;;;11.30;99.90;;;;;;4876790;29;20923;-72
2023/03/30 01:25:41;;;;;;;10.30;5.60;;;11.30;99.90;;;;;;4877621;29;20375;-72
2023/03/30 01:28:12;;;;;;;9.40;5.50;;;11.30;99.90;;;;;;4867666;29;21032;-72
2023/03/30 01:31:10;;;;;;;13.53;7.27;;;11.20;99.90;;;;;;4861531;29;20293;-72
2023/03/30 01:33:44;;;;;;;8.97;5.47;;;11.20;99.90;;;;;;4876614;29;20289;-72
2023/03/30 01:36:25;;;;;;;11.32;6.15;;;11.20;99.90;;;;;;4861540;29;20833;-72
2023/03/30 01:39:28;;;;;;;10.30;5.93;;;11.20;99.90;;;;;;4875213;29;20055;-72
2023/03/30 01:42:00;;;;;;;11.80;5.60;;;11.30;99.90;;;;;;4875447;29;20301;-72
2023/03/30 01:44:56;;;;;;;9.37;5.37;;;11.30;99.90;;;;;;4860141;29;20534;-71
2023/03/30 01:47:39;;;;;;;9.57;5.13;;;11.30;99.90;;;;;;4870089;29;20300;-72
2023/03/30 01:50:14;;;;;;;10.60;5.20;;;11.30;99.90;;;;;;4875127;29;20292;-73
2023/03/30 01:52:53;;;;;;;11.98;6.35;;;11.30;99.90;;;;;;4861932;29;20289;-73
2023/03/30 01:55:35;;;;;;;8.70;4.93;;;11.20;99.90;;;;;;4876441;29;20037;-73
2023/03/30 01:58:18;;;;;;;10.17;4.70;;;11.10;99.90;;;;;;4877454;29;20300;-73
2023/03/30 02:00:49;;;;;;;8.27;4.33;;;11.00;99.90;;;;;;4862012;29;20293;-73
2023/03/30 02:03:30;;;;;;;11.50;5.07;;;11.00;99.90;;;;;;4876416;29;20308;-73
2023/03/30 02:06:02;;;;;;;13.73;4.40;;;11.10;99.90;;;;;;4861803;29;20289;-73
2023/03/30 02:08:31;;;;;;;7.40;3.70;;;11.20;99.90;;;;;;4864022;29;20336;-73
2023/03/30 02:10:58;;;;;;;10.90;4.30;;;11.20;99.90;;;;;;4862241;29;20293;-73
2023/03/30 02:13:26;;;;;;;10.33;3.30;;;11.20;99.90;;;;;;4861726;29;20293;-73
2023/03/30 02:15:57;;;;;;;9.37;3.53;;;11.20;99.90;;;;;;4872706;29;20309;-73
2023/03/30 02:18:23;;;;;;;8.57;3.63;;;11.20;99.90;;;;;;4881276;29;20343;-73
2023/03/30 02:20:48;;;;;;;9.67;3.03;;;11.20;99.90;;;;;;4865540;29;20281;-73
2023/03/30 02:23:18;;;;;;;9.00;3.10;;;11.10;99.90;;;;;;4865327;29;20043;-73
2023/03/30 02:25:44;;;;;;;10.20;3.90;;;11.10;99.90;;;;;;4878563;29;20804;-73
2023/03/30 02:28:10;;;;;;;12.10;3.87;;;11.00;99.90;;;;;;4876123;29;20317;-73
2023/03/30 02:30:41;;;;;;;9.87;3.43;;;11.00;99.90;;;;;;4880809;29;20060;-73
2023/03/30 02:33:19;;;;;;;9.57;3.60;;;11.00;99.90;;;;;;4865429;29;20028;-73
2023/03/30 02:36:18;;;;;;;7.17;3.03;;;11.00;99.90;;;;;;4864660;29;20292;-73
2023/03/30 02:39:04;;;;;;;12.43;4.13;;;11.00;99.90;;;;;;4861245;29;20296;-72
2023/03/30 02:41:35;;;;;;;7.93;3.58;;;11.00;99.90;;;;;;4880248;29;20289;-72
2023/03/30 02:44:14;;;;;;;9.80;3.13;;;11.00;99.90;;;;;;4880323;29;20493;-72
2023/03/30 02:46:56;;;;;;;10.70;3.67;;;11.00;99.90;;;;;;4859946;29;21110;-73
2023/03/30 02:49:27;;;;;;;8.23;2.93;;;11.00;99.90;;;;;;4860650;29;20464;-73
2023/03/30 02:52:05;;;;;;;9.97;4.67;;;11.00;99.90;;;;;;4864837;29;20297;-73
2023/03/30 02:54:53;;;;;;;13.13;4.37;;;11.00;99.90;;;;;;4864167;29;20328;-73
2023/03/30 02:57:37;;;;;;;14.60;4.67;;;11.00;99.90;;;;;;4863992;29;20336;-72
2023/03/30 03:00:16;;;;;;;10.03;4.20;;;10.90;99.90;;;;;;4860506;29;20329;-72
2023/03/30 03:02:48;;;;;;;15.13;4.50;;;10.90;99.90;;;;;;4878550;29;20304;-72
2023/03/30 03:05:15;;;;;;;13.77;3.90;;;10.90;99.90;;;;;;4873282;29;20421;-72
2023/03/30 03:07:41;;;;;;;14.33;4.93;;;10.90;99.90;;;;;;4863842;29;20415;-73
2023/03/30 03:10:07;;;;;;;9.63;4.00;;;10.90;99.90;;;;;;4879601;29;20299;-73
2023/03/30 03:12:34;;;;;;;9.97;4.00;;;10.90;99.90;;;;;;4862901;29;20051;-73
2023/03/30 03:15:03;;;;;;;9.50;3.57;;;10.90;99.90;;;;;;4863866;29;20301;-73
2023/03/30 03:17:33;;;;;;;11.40;3.80;;;10.90;99.90;;;;;;4891152;29;20300;-73
2023/03/30 03:20:03;;;;;;;10.90;4.27;;;10.80;99.90;;;;;;4863327;29;20288;-73
2023/03/30 03:22:30;;;;;;;7.27;3.60;;;10.70;99.90;;;;;;4864176;29;20623;-73
2023/03/30 03:24:55;;;;;;;9.27;3.60;;;10.60;99.90;;;;;;4863993;29;20856;-73
2023/03/30 03:27:21;;;;;;;12.10;4.20;;;10.60;99.90;;;;;;4879201;29;20379;-73
2023/03/30 03:29:48;;;;;;;9.80;3.60;;;10.60;99.90;;;;;;4863524;29;20041;-73
2023/03/30 03:32:14;;;;;;;12.03;3.47;;;10.50;99.90;;;;;;4863504;29;20052;-73
2023/03/30 03:34:43;;;;;;;8.73;3.30;;;10.50;99.90;;;;;;4877426;29;20293;-72
2023/03/30 03:37:09;;;;;;;13.73;4.10;;;10.50;99.90;;;;;;4877741;29;20297;-73
2023/03/30 03:39:36;;;;;;;13.77;4.50;;;10.50;99.90;;;;;;4862735;29;20293;-73
2023/03/30 03:42:03;;;;;;;10.60;4.50;;;10.50;99.90;;;;;;4863648;29;20702;-73
2023/03/30 03:44:29;;;;;;;17.53;3.53;;;10.50;99.90;;;;;;4879078;29;20738;-73
2023/03/30 03:46:55;;;;;;;13.73;3.53;;;10.50;99.90;;;;;;4878655;29;20315;-73
2023/03/30 03:49:20;;;;;;;11.33;3.53;;;10.50;99.90;;;;;;4862233;29;20059;-73
2023/03/30 03:51:46;;;;;;;10.13;3.30;;;10.50;99.90;;;;;;4863778;29;20043;-73
2023/03/30 03:54:12;;;;;;;14.83;3.80;;;10.40;99.90;;;;;;4863684;29;20056;-72
2023/03/30 03:56:38;;;;;;;10.47;3.37;;;10.40;99.90;;;;;;4863470;29;20497;-72
2023/03/30 03:59:03;;;;;;;10.07;3.23;;;10.40;99.90;;;;;;4878393;29;20123;-72
2023/03/30 04:01:30;;;;;;;10.70;3.37;;;10.40;99.90;;;;;;4863455;29;20052;-72
2023/03/30 04:03:56;;;;;;;13.73;3.00;;;10.40;99.90;;;;;;4878771;29;20493;-73
2023/03/30 04:06:22;;;;;;;11.57;3.20;;;10.40;99.90;;;;;;4862534;29;20316;-73
2023/03/30 04:08:48;;;;;;;11.53;2.97;;;10.40;99.90;;;;;;4863507;29;20297;-73
2023/03/30 04:11:16;;;;;;;14.30;3.10;;;10.40;99.90;;;;;;4878587;29;20449;-73
2023/03/30 04:13:42;;;;;;;14.77;3.30;;;10.50;99.90;;;;;;4874705;29;20041;-73
2023/03/30 04:16:08;;;;;;;10.80;3.37;;;10.50;99.90;;;;;;4860017;29;20349;-73
2023/03/30 04:18:34;;;;;;;10.40;2.70;;;10.50;99.90;;;;;;4878712;29;20052;-73
2023/03/30 04:21:01;;;;;;;11.57;2.80;;;10.50;99.90;;;;;;4878145;29;20040;-73
2023/03/30 04:23:33;;;;;;;15.03;2.57;;;10.50;99.90;;;;;;4878299;29;20052;-73
2023/03/30 04:26:03;;;;;;;16.70;2.67;;;10.60;99.90;;;;;;4858691;29;20289;-73
2023/03/30 04:28:31;;;;;;;12.60;2.77;;;10.60;99.90;;;;;;4877817;29;20292;-73
2023/03/30 04:31:03;;;;;;;10.83;2.40;;;10.60;99.90;;;;;;4877692;29;20297;-73
2023/03/30 04:33:33;;;;;;;10.90;2.67;;;10.60;99.90;;;;;;4862361;29;20288;-73
2023/03/30 04:36:00;;;;;;;12.57;3.40;;;10.70;99.90;;;;;;4878594;29;20891;-73
2023/03/30 04:38:26;;;;;;;11.30;2.80;;;10.70;99.90;;;;;;4873026;29;20341;-73
2023/03/30 04:40:53;;;;;;;12.87;2.83;;;10.70;99.90;;;;;;4854709;29;20300;-73
2023/03/30 04:43:20;;;;;;;10.83;3.00;;;10.70;99.90;;;;;;4859944;29;20285;-73
2023/03/30 04:45:51;;;;;;;11.37;2.23;;;10.80;99.90;;;;;;4862944;29;20303;-73
2023/03/30 04:48:18;;;;;;;8.93;2.33;;;10.80;99.90;;;;;;4876342;29;20297;-73
2023/03/30 04:50:45;;;;;;;11.57;2.37;;;10.80;99.90;;;;;;4875712;29;20286;-73
2023/03/30 04:53:13;;;;;;;9.87;2.80;;;10.70;99.90;;;;;;4861714;29;20316;-73
2023/03/30 04:55:40;;;;;;;15.20;2.80;;;10.70;99.90;;;;;;4877638;29;20284;-72
2023/03/30 04:58:06;;;;;;;14.00;2.77;;;10.70;99.90;;;;;;4859655;29;20368;-73
2023/03/30 05:00:32;;;;;;;15.10;3.23;;;10.80;99.90;;;;;;4862470;29;20605;-73
2023/03/30 05:02:58;;;;;;;17.07;2.90;;;10.80;99.90;;;;;;4861637;29;20614;-73
2023/03/30 05:05:24;;;;;;;9.73;2.70;;;10.80;99.90;;;;;;4859976;29;22000;-72
2023/03/30 05:07:50;;;;;;;15.17;2.70;;;10.80;99.90;;;;;;4857646;29;20302;-72
2023/03/30 05:10:16;;;;;;;12.77;3.33;;;10.80;99.90;;;;;;4858882;29;20120;-73
2023/03/30 05:12:42;;;;;;;11.83;3.07;;;10.80;99.90;;;;;;4877953;29;20769;-73
2023/03/30 05:15:08;;;;;;;15.53;2.90;;;10.70;99.90;;;;;;4861282;29;20048;-73
2023/03/30 05:17:34;;;;;;;13.17;2.93;;;10.70;99.90;;;;;;4875871;29;20107;-73
2023/03/30 05:20:01;;;;;;;12.70;2.50;;;10.80;99.90;;;;;;4858862;29;20702;-73
2023/03/30 05:22:26;;;;;;;11.63;3.03;;;10.80;99.90;;;;;;4875732;29;20048;-73
2023/03/30 05:24:52;;;;;;;12.33;3.30;;;10.80;99.90;;;;;;4884627;29;20348;-73
2023/03/30 05:27:18;;;;;;;13.70;3.00;;;10.80;99.90;;;;;;4880066;29;20040;-72
2023/03/30 05:29:44;;;;;;;11.13;3.10;;;10.80;99.90;;;;;;4883439;29;20052;-72
2023/03/30 05:32:09;;;;;;;16.20;2.80;;;10.90;99.90;;;;;;4867549;29;20297;-73
2023/03/30 05:34:35;;;;;;;9.47;2.50;;;10.90;99.90;;;;;;4876801;29;20037;-73
2023/03/30 05:37:01;;;;;;;14.33;3.27;;;10.90;99.90;;;;;;4861531;29;20052;-73
2023/03/30 05:39:27;;;;;;;15.13;3.13;;;10.90;99.90;;;;;;4883967;29;20136;-73
2023/03/30 05:41:53;;;;;;;9.93;2.73;;;11.00;99.90;;;;;;4869005;29;20762;-73
2023/03/30 05:44:18;;;;;;;8.07;2.33;;;11.00;99.90;;;;;;4889532;29;20048;-73
2023/03/30 05:46:45;;;;;;;10.03;2.70;;;11.10;99.90;;;;;;4880765;29;20032;-73
2023/03/30 05:49:11;;;;;;;10.33;2.50;;;11.10;99.90;;;;;;4889364;29;20036;-73
2023/03/30 05:51:36;;;;;;;9.47;2.50;;;11.20;99.90;;;;;;4865755;29;20308;-73
2023/03/30 05:54:03;;;;;;;12.17;3.20;;;11.20;99.90;;;;;;4873250;29;20048;-73
2023/03/30 05:56:29;;;;;;;11.23;2.30;;;11.30;99.90;;;;;;4881271;29;20055;-73
2023/03/30 05:58:55;;;;;;;12.70;2.60;;;11.20;99.90;;;;;;4880816;29;20292;-73
2023/03/30 06:01:20;;;;;;;11.13;2.13;;;11.20;99.90;;;;;;4865486;29;20303;-73
2023/03/30 06:03:46;;;;;;;9.70;2.43;;;11.20;99.90;;;;;;4880831;29;20051;-73
2023/03/30 06:06:13;;;;;;;12.73;2.50;;;11.20;99.90;;;;;;4879388;29;20044;-73
2023/03/30 06:08:40;;;;;;;12.83;2.97;;;11.10;99.90;;;;;;4881107;29;20115;-73
2023/03/30 06:11:06;;;;;;;15.23;3.17;;;11.20;99.90;;;;;;4878245;29;20293;-73
2023/03/30 06:13:32;;;;;;;9.97;2.97;;;11.10;99.90;;;;;;4865431;29;20390;-73
2023/03/30 06:15:58;;;;;;;12.53;2.50;;;11.10;99.90;;;;;;4879944;29;20809;-73
2023/03/30 06:18:24;;;;;;;11.53;2.60;;;11.10;99.90;;;;;;4878434;29;20127;-72
2023/03/30 06:20:50;;;;;;;16.17;3.10;;;11.10;99.90;;;;;;4863164;29;20378;-73
2023/03/30 06:23:16;;;;;;;13.03;2.70;;;11.20;99.90;;;;;;4863985;29;20425;-73
2023/03/30 06:25:51;;;;;;;16.00;2.60;;;11.20;99.90;;;;;;4879304;29;20291;-73
2023/03/30 06:28:19;;;;;;;15.95;3.25;;;11.30;99.90;;;;;;4862949;29;20305;-73
2023/03/30 06:30:47;;;;;;;14.20;2.57;;;11.20;99.90;;;;;;4876874;29;20521;-73
2023/03/30 06:33:17;;;;;;;11.50;2.87;;;11.30;99.90;;;;;;4880122;29;20641;-73
2023/03/30 06:35:51;;;;;;;15.43;3.57;;;11.30;99.90;;;;;;4878745;29;20344;-73
2023/03/30 06:38:18;;;;;;;16.60;3.28;;;11.30;99.90;;;;;;4853072;29;20296;-73
2023/03/30 06:40:43;;;;;;;21.10;3.20;;;11.30;99.90;;;;;;4857764;29;20670;-73
2023/03/30 06:43:18;;;;;;;17.00;3.13;;;11.30;99.90;;;;;;4879769;29;20293;-73
2023/03/30 06:45:49;;;;;;;20.20;3.75;;;11.30;99.90;;;;;;4851439;29;20048;-73
2023/03/30 06:48:15;;;;;;;19.67;3.43;;;11.20;99.90;;;;;;4859768;29;20044;-73
2023/03/30 06:50:45;;;;;;;17.27;3.57;;;11.30;99.90;;;;;;4860360;29;20301;-72
2023/03/30 06:53:11;;;;;;;15.97;3.80;;;11.30;99.90;;;;;;4853961;29;20376;-72
2023/03/30 06:55:36;;;;;;;17.90;3.23;;;11.30;99.90;;;;;;4879133;29;20280;-72
2023/03/30 06:58:02;;;;;;;18.13;3.43;;;11.30;99.90;;;;;;4863124;29;20060;-72
2023/03/30 07:00:28;;;;;;;24.63;4.10;;;11.30;99.90;;;;;;4854194;29;20072;-72
2023/03/30 07:02:55;;;;;;;20.87;4.30;;;11.30;99.90;;;;;;4876891;29;20056;-72
2023/03/30 07:05:24;;;;;;;20.90;3.47;;;11.20;99.90;;;;;;4878384;29;20296;-73
2023/03/30 07:07:53;;;;;;;21.27;3.90;;;11.20;99.90;;;;;;4859033;29;20309;-73
2023/03/30 07:10:20;;;;;;;25.97;4.27;;;11.20;99.90;;;;;;4884436;29;20285;-73
2023/03/30 07:12:46;;;;;;;20.27;5.27;;;11.20;99.90;;;;;;4861419;29;20777;-72
2023/03/30 07:15:13;;;;;;;19.97;3.83;;;11.20;99.90;;;;;;4862784;29;20289;-72
2023/03/30 07:17:39;;;;;;;31.17;4.70;;;11.20;99.90;;;;;;4862591;29;21220;-73
2023/03/30 07:20:07;;;;;;;28.37;3.70;;;11.20;99.90;;;;;;4860951;29;20293;-74
2023/03/30 07:22:33;;;;;;;26.80;4.23;;;11.20;99.90;;;;;;4880598;29;20299;-73
2023/03/30 07:24:58;;;;;;;22.20;3.97;;;11.20;99.90;;;;;;4880024;29;20375;-73
2023/03/30 07:27:24;;;;;;;24.17;4.37;;;11.10;99.90;;;;;;4864397;29;20309;-73
2023/03/30 07:29:51;;;;;;;21.90;3.70;;;11.10;99.90;;;;;;4879481;29;20402;-73
2023/03/30 07:32:17;;;;;;;14.27;3.50;;;11.10;99.90;;;;;;4864376;29;20113;-73
2023/03/30 07:34:43;;;;;;;23.10;4.60;;;11.00;99.90;;;;;;4857651;29;20293;-74
2023/03/30 07:37:09;;;;;;;27.27;4.77;;;11.00;99.90;;;;;;4864447;29;20289;-73
2023/03/30 07:39:35;;;;;;;25.07;4.37;;;11.00;99.90;;;;;;4867687;29;20293;-74
2023/03/30 07:42:01;;;;;;;28.37;5.37;;;11.00;99.90;;;;;;4866905;29;20067;-73
2023/03/30 07:44:29;;;;;;;30.03;5.17;;;11.00;99.90;;;;;;4865271;29;20293;-75
2023/03/30 07:46:58;;;;;;;27.47;4.90;;;11.00;99.90;;;;;;4866118;29;20348;-74
2023/03/30 07:49:24;;;;;;;26.60;4.93;;;11.00;99.90;;;;;;4860092;29;20389;-74
2023/03/30 07:51:52;;;;;;;30.60;5.20;;;10.90;99.90;;;;;;4864155;29;20300;-72
2023/03/30 07:54:18;;;;;;;21.10;4.23;;;10.90;99.90;;;;;;4878201;29;20316;-73
2023/03/30 07:56:43;;;;;;;34.63;5.00;;;10.90;99.90;;;;;;4860928;29;20297;-74
2023/03/30 07:59:12;;;;;;;28.00;5.27;;;10.90;99.90;;;;;;4860467;29;20056;-74
2023/03/30 08:01:38;;;;;;;36.17;5.77;;;11.00;99.90;;;;;;4861484;29;20754;-74
2023/03/30 08:04:05;;;;;;;28.47;5.20;;;11.10;99.90;;;;;;4874313;29;20396;-73
2023/03/30 08:06:30;;;;;;;33.60;6.00;;;11.20;99.90;;;;;;4875850;29;20674;-74
2023/03/30 08:08:57;;;;;;;27.23;5.80;;;11.30;99.90;;;;;;4863207;29;20277;-73
2023/03/30 08:11:23;;;;;;;29.80;5.53;;;11.30;99.90;;;;;;4873885;29;20493;-75
2023/03/30 08:13:48;;;;;;;27.20;5.17;;;11.20;99.90;;;;;;4861701;29;20281;-74
2023/03/30 08:16:14;;;;;;;29.50;5.00;;;11.20;99.90;;;;;;4861813;29;20037;-74
2023/03/30 08:18:43;;;;;;;33.13;6.53;;;11.10;99.90;;;;;;4877246;29;20052;-74
2023/03/30 08:21:09;;;;;;;24.45;4.93;;;11.10;99.90;;;;;;4866312;29;20039;-74
2023/03/30 08:23:35;;;;;;;30.17;5.33;;;11.10;99.90;;;;;;4863133;29;20040;-73
2023/03/30 08:26:02;;;;;;;27.10;4.63;;;11.10;99.90;;;;;;4860859;29;20328;-74
2023/03/30 08:28:28;;;;;;;25.58;4.32;;;11.20;99.90;;;;;;4861252;29;20299;-73
2023/03/30 08:30:55;;;;;;;25.37;5.27;;;11.30;99.90;;;;;;4876513;29;20119;-73
2023/03/30 08:33:22;;;;;;;22.73;4.47;;;11.40;99.90;;;;;;4862677;29;20281;-74
2023/03/30 08:35:48;;;;;;;29.10;4.53;;;11.50;99.90;;;;;;4846060;29;20293;-75
2023/03/30 08:38:15;;;;;;;27.43;5.03;;;11.60;99.90;;;;;;4876161;29;20304;-74
2023/03/30 08:40:48;;;;;;;27.20;5.10;;;11.70;99.90;;;;;;4863337;29;20104;-74
2023/03/30 08:43:32;;;;;;;25.47;4.33;;;11.90;99.90;;;;;;4859964;29;20284;-74
2023/03/30 08:46:01;;;;;;;24.07;4.67;;;12.00;99.90;;;;;;4859650;29;20372;-74
2023/03/30 08:48:32;;;;;;;30.23;4.83;;;12.00;99.90;;;;;;4878133;29;20300;-74
2023/03/30 08:51:21;;;;;;;26.83;4.80;;;12.00;99.90;;;;;;4875080;29;20285;-73
2023/03/30 08:54:09;;;;;;;30.07;4.67;;;12.00;99.90;;;;;;4841555;29;20793;-73
2023/03/30 08:56:40;;;;;;;23.00;4.03;;;12.00;99.90;;;;;;4863082;29;20690;-74
2023/03/30 08:59:21;;;;;;;23.93;4.77;;;12.10;99.90;;;;;;4856432;29;20376;-74
2023/03/30 09:02:15;;;;;;;22.10;4.17;;;12.20;99.90;;;;;;4876334;29;20325;-73
2023/03/30 09:05:05;;;;;;;19.03;3.90;;;12.30;99.90;;;;;;4876215;29;20347;-75
2023/03/30 09:07:45;;;;;;;18.87;3.40;;;12.40;99.90;;;;;;4878881;29;20320;-74
2023/03/30 09:10:13;;;;;;;24.20;4.10;;;12.50;99.90;;;;;;4879435;29;20289;-75
2023/03/30 09:12:50;;;;;;;21.17;3.80;;;12.40;99.90;;;;;;4872923;29;20305;-74
2023/03/30 09:15:26;;;;;;;23.23;4.00;;;12.50;99.90;;;;;;4865492;29;20850;-74
2023/03/30 09:18:01;;;;;;;22.27;4.10;;;12.50;99.90;;;;;;4879293;29;20295;-73
2023/03/30 09:20:29;;;;;;;24.25;4.53;;;12.60;99.90;;;;;;4878539;29;20400;-74
2023/03/30 09:22:58;;;;;;;22.33;3.63;;;12.50;99.90;;;;;;4869293;29;20059;-73
2023/03/30 09:25:37;;;;;;;19.27;4.90;;;12.40;99.90;;;;;;4880158;29;20699;-74
2023/03/30 09:28:40;;;;;;;24.10;4.23;;;12.30;99.90;;;;;;4879093;29;20372;-74
2023/03/30 09:31:12;;;;;;;20.43;3.90;;;12.20;99.90;;;;;;4860656;29;20285;-74
2023/03/30 09:34:02;;;;;;;21.07;3.23;;;12.10;99.90;;;;;;4858333;29;20308;-72
2023/03/30 09:36:43;;;;;;;23.20;3.87;;;12.10;99.90;;;;;;4851423;29;20308;-72
2023/03/30 09:39:20;;;;;;;19.37;3.67;;;12.20;99.90;;;;;;4878387;29;20348;-72
2023/03/30 09:41:46;;;;;;;17.30;3.37;;;12.20;99.90;;;;;;4860364;29;20281;-72
2023/03/30 09:44:32;;;;;;;21.53;4.33;;;12.20;99.90;;;;;;4877509;29;20292;-72
2023/03/30 09:46:59;;;;;;;19.43;3.57;;;12.20;99.90;;;;;;4860748;29;20612;-72
2023/03/30 09:49:36;;;;;;;22.87;3.87;;;12.30;99.90;;;;;;4870929;29;20301;-72
2023/03/30 09:52:07;;;;;;;23.40;4.70;;;12.30;99.90;;;;;;4859769;29;20284;-72
2023/03/30 09:54:38;;;;;;;23.30;4.53;;;12.30;99.90;;;;;;4860837;29;20796;-72
2023/03/30 09:57:04;;;;;;;23.83;4.80;;;12.20;99.90;;;;;;4861276;29;20289;-72
2023/03/30 09:59:34;;;;;;;24.53;4.87;;;12.10;99.90;;;;;;4861928;29;20816;-72
2023/03/30 10:02:12;;;;;;;26.83;4.67;;;12.10;99.90;;;;;;4874488;29;20285;-72
2023/03/30 10:04:53;;;;;;;21.50;4.53;;;12.20;99.90;;;;;;4860947;29;20433;-72
2023/03/30 10:07:29;;;;;;;23.67;3.97;;;12.10;99.90;;;;;;4877548;29;20674;-72
2023/03/30 10:09:56;;;;;;;28.43;6.03;;;12.20;99.90;;;;;;4877307;29;20303;-72
2023/03/30 10:12:24;;;;;;;22.27;4.80;;;12.30;99.90;;;;;;4860652;29;20781;-72
2023/03/30 10:14:59;;;;;;;24.20;4.73;;;12.30;99.90;;;;;;4860888;29;20283;-72
2023/03/30 10:17:26;;;;;;;30.50;5.37;;;12.30;99.90;;;;;;4862207;29;20332;-72
2023/03/30 10:20:12;;;;;;;24.03;4.20;;;12.20;99.90;;;;;;4877477;29;20321;-72
2023/03/30 10:23:13;;;;;;;26.13;4.90;;;12.30;99.90;;;;;;4874484;29;20297;-72
2023/03/30 10:25:41;;;;;;;20.87;4.63;;;12.30;99.90;;;;;;4858521;29;20304;-72
2023/03/30 10:28:26;;;;;;;19.77;4.20;;;12.30;99.90;;;;;;4877404;29;20313;-72
2023/03/30 10:30:56;;;;;;;24.25;3.85;;;12.40;99.90;;;;;;4880563;29;20356;-73
2023/03/30 10:33:23;;;;;;;29.33;5.43;;;12.50;99.90;;;;;;4880061;29;20037;-72
2023/03/30 10:35:55;;;;;;;25.87;4.93;;;12.70;99.90;;;;;;4879019;29;20285;-73
2023/03/30 10:38:23;;;;;;;22.63;4.87;;;12.80;99.90;;;;;;4880600;29;20662;-73
2023/03/30 10:40:57;;;;;;;23.63;4.80;;;12.80;99.90;;;;;;4878224;29;20341;-72
2023/03/30 10:43:30;;;;;;;19.98;4.57;;;12.80;99.90;;;;;;4873144;29;20297;-72
2023/03/30 10:46:06;;;;;;;22.73;4.43;;;12.90;99.90;;;;;;4880735;29;20044;-73
2023/03/30 10:48:55;;;;;;;28.97;4.70;;;12.90;99.90;;;;;;4875171;29;20355;-73
2023/03/30 10:51:42;;;;;;;22.00;4.97;;;13.00;99.90;;;;;;4879958;29;20376;-73
2023/03/30 10:54:26;;;;;;;27.17;4.37;;;13.00;99.90;;;;;;4861297;29;20295;-73
2023/03/30 10:57:07;;;;;;;23.87;4.40;;;13.20;99.90;;;;;;4864196;29;20668;-73
2023/03/30 10:59:45;;;;;;;20.97;3.80;;;13.30;99.90;;;;;;4879642;29;20924;-73
2023/03/30 11:02:23;;;;;;;24.27;4.13;;;13.40;99.90;;;;;;4858825;29;20305;-73
2023/03/30 11:05:05;;;;;;;21.70;4.63;;;13.40;99.90;;;;;;4860523;29;20384;-73
2023/03/30 11:07:50;;;;;;;26.97;5.17;;;13.40;99.90;;;;;;4862954;29;20309;-73
2023/03/30 11:10:20;;;;;;;23.93;4.40;;;13.50;99.90;;;;;;4872305;29;20293;-73
2023/03/30 11:13:16;;;;;;;24.43;5.50;;;13.50;99.90;;;;;;4864386;29;20303;-73
2023/03/30 11:15:48;;;;;;;26.77;3.80;;;13.40;99.90;;;;;;4880079;29;20829;-73
2023/03/30 11:18:41;;;;;;;27.70;4.80;;;13.40;99.90;;;;;;4865692;29;20045;-73
2023/03/30 11:21:16;;;;;;;23.07;5.07;;;13.50;99.90;;;;;;4877676;29;20694;-73
2023/03/30 11:23:51;;;;;;;;;;;13.70;99.90;;;;;;4860015;29;20297;-73
2023/03/30 11:26:28;;;;;;;26.33;5.60;;;14.00;99.90;;;;;;4879613;29;19965;-74
2023/03/30 11:29:04;;;;;;;23.00;3.63;;;14.00;99.90;;;;;;4875772;29;20292;-74
2023/03/30 11:31:58;;;;;;;28.23;5.97;;;13.90;99.90;;;;;;4879810;29;20376;-74
2023/03/30 11:35:01;;;;;;;24.67;5.77;;;13.80;99.90;;;;;;4877322;29;20302;-74
2023/03/30 11:37:41;;;;;;;23.47;5.33;;;13.80;99.90;;;;;;4861667;29;20289;-74
2023/03/30 11:40:23;;;;;;;29.63;5.17;;;13.80;99.90;;;;;;4873308;29;20295;-74
2023/03/30 11:42:48;;;;;;;24.80;4.97;;;13.80;99.90;;;;;;4865420;29;20932;-74
2023/03/30 11:45:23;;;;;;;31.47;5.10;;;13.80;99.90;;;;;;4876716;29;20297;-74
2023/03/30 11:48:34;;;;;;;25.20;4.35;;;13.90;99.90;;;;;;4875483;29;20056;-74
2023/03/30 11:51:03;;;;;;;27.53;5.13;;;14.00;99.90;;;;;;4876249;29;20044;-74
2023/03/30 11:53:31;;;;;;;27.20;4.83;;;13.90;99.90;;;;;;4865020;29;20292;-74
2023/03/30 11:56:26;;;;;;;29.90;5.47;;;13.60;99.90;;;;;;4864822;29;20868;-73
2023/03/30 11:59:05;;;;;;;29.27;6.13;;;13.40;99.90;;;;;;4863848;29;20325;-74
2023/03/30 12:01:40;;;;;;;28.60;5.73;;;13.50;99.90;;;;;;4874608;29;20808;-74
2023/03/30 12:04:10;;;;;;;29.37;5.50;;;13.50;99.90;;;;;;4879516;29;20284;-74
2023/03/30 12:06:46;;;;;;;24.93;5.20;;;13.60;99.90;;;;;;4863911;29;20305;-74
2023/03/30 12:09:20;;;;;;;33.43;5.53;;;13.70;99.90;;;;;;4880155;29;20749;-74
2023/03/30 12:11:49;;;;;;;31.98;5.28;;;13.80;99.90;;;;;;4879926;29;20300;-73
2023/03/30 12:14:24;;;;;;;33.07;5.90;;;13.60;99.90;;;;;;4880273;29;20124;-74
2023/03/30 12:16:55;;;;;;;31.60;5.53;;;13.60;99.90;;;;;;4877685;29;20305;-73
2023/03/30 12:19:31;;;;;;;27.10;5.17;;;13.70;99.90;;;;;;4864194;29;20121;-74
2023/03/30 12:22:10;;;;;;;23.00;5.07;;;13.80;99.90;;;;;;4864433;29;20297;-74
2023/03/30 12:24:56;;;;;;;27.77;4.83;;;13.90;99.90;;;;;;4879542;29;20371;-74
2023/03/30 12:27:24;;;;;;;25.67;5.00;;;13.80;99.90;;;;;;4858440;29;20312;-74
2023/03/30 12:29:52;;;;;;;28.70;5.57;;;13.70;99.90;;;;;;4864704;29;20292;-74
2023/03/30 12:32:26;;;;;;;27.97;5.60;;;13.80;99.90;;;;;;4878971;29;20281;-74
2023/03/30 12:34:52;;;;;;;26.43;4.83;;;14.00;99.90;;;;;;4864261;29;20295;-74
2023/03/30 12:37:22;;;;;;;26.17;4.73;;;14.10;99.90;;;;;;4863395;29;20288;-74
2023/03/30 12:40:13;;;;;;;31.07;5.80;;;14.00;99.90;;;;;;4879021;29;20351;-74
2023/03/30 12:42:53;;;;;;;26.60;5.40;;;13.80;99.90;;;;;;4875022;29;20285;-74
2023/03/30 12:45:47;;;;;;;35.07;7.00;;;13.60;99.90;;;;;;4865037;29;20697;-74
2023/03/30 12:48:34;;;;;;;27.53;5.37;;;13.60;99.90;;;;;;4894246;29;20309;-74
2023/03/30 12:51:34;;;;;;;31.77;6.63;;;13.70;99.90;;;;;;4864121;29;20341;-74
2023/03/30 12:54:39;;;;;;;27.27;5.20;;;13.70;99.90;;;;;;4851274;29;20295;-74
2023/03/30 12:57:10;;;;;;;26.13;5.20;;;13.70;99.90;;;;;;4867483;29;20285;-74
2023/03/30 13:00:08;;;;;;;24.53;5.07;;;13.50;99.90;;;;;;4863852;29;20316;-74
2023/03/30 13:03:11;;;;;;;28.87;5.00;;;13.60;99.90;;;;;;4859344;29;20793;-73
2023/03/30 13:05:47;;;;;;;27.60;5.37;;;13.70;99.90;;;;;;4879831;29;20391;-74